La Dolce Vita — WDG8843 — position and weather

sailwx.info

Track history (hours):
 
Tides and Currents Weather Stations Pressure Air Temp Water Temp Dewpoint Dewpoint Depression Visibility Wind Speed Wind Dir Waves Ship Positions

La Dolce Vita

Owner: Gilbertson Jr, Robert B, Seattle, WA. More information available from US FCC via Universal Licensing System and Coast Guard Vessel Documentation Center.

Last reported at 2017-Oct-16 00:51 UTC. Time now 2017-Oct-17 22:30 UTC.
Position N 47°41' W 122°24'.

Length 9 m.

Type: Pleasure craft. MMSI: 367581630.

Date/timePositionNaut miles runAvg speedWind from/ knotsBaromVisibWave heightAir tempDewpointWater temp
2017-Oct-16 00:51N 47°41' W 122°24'0 0.7
2017-Oct-16 00:30N 47°41' W 122°24'2 3.7
2017-Oct-16 00:00N 47°42' W 122°27'3 5.5
2017-Oct-15 23:28N 47°43' W 122°31'1 0.3
2017-Oct-15 19:29N 47°44' W 122°33'2 4.6
2017-Oct-15 19:00N 47°43' W 122°30'3 5.6
2017-Oct-15 18:30N 47°41' W 122°26'1 2.2
2017-Oct-15 18:00N 47°41' W 122°24'0 0.0
2017-Oct-15 00:30N 47°41' W 122°24'0 0.7
2017-Oct-15 00:00N 47°41' W 122°25'2 3.3
2017-Oct-14 23:30N 47°40' W 122°27'2 2.8
2017-Oct-14 22:56N 47°39' W 122°26'1 2.8
2017-Oct-14 22:30N 47°38' W 122°26'2 4.2
2017-Oct-14 22:00N 47°36' W 122°28'2 3.2
2017-Oct-14 21:30N 47°34' W 122°28'1 2.4
2017-Oct-14 21:01N 47°35' W 122°28'1 1.9
2017-Oct-14 20:30N 47°36' W 122°27'1 2.1
2017-Oct-14 20:00N 47°37' W 122°27'2 3.2
2017-Oct-14 19:30N 47°39' W 122°28'2 3.4
2017-Oct-14 19:00N 47°40' W 122°27'1 2.7
2017-Oct-14 18:30N 47°41' W 122°25'  
2017-Oct-08 23:01N 47°41' W 122°24'0 0.0
2017-Oct-08 23:00N 47°41' W 122°24'0 0.5
2017-Oct-08 22:30N 47°41' W 122°25'2 4.7
2017-Oct-08 22:00N 47°41' W 122°28'1 2.4
2017-Oct-08 21:30N 47°40' W 122°29'2 3.3
2017-Oct-08 21:00N 47°38' W 122°29'1 3.0
2017-Oct-08 20:30N 47°37' W 122°29'2 2.9
2017-Oct-08 19:57N 47°37' W 122°31'0 0.2
2017-Oct-08 19:28N 47°37' W 122°31'0 0.0
2017-Oct-08 01:11N 47°37' W 122°31'0 0.8
2017-Oct-08 00:59N 47°37' W 122°31'1 2.8
2017-Oct-08 00:30N 47°37' W 122°29'2 3.1
2017-Oct-08 00:00N 47°35' W 122°28'1 1.2
2017-Oct-07 23:31N 47°35' W 122°28'2 4.9
2017-Oct-07 23:00N 47°34' W 122°32'2 3.1
2017-Oct-07 22:29N 47°35' W 122°34'1 1.4
2017-Oct-07 22:00N 47°35' W 122°35'1 1.4
2017-Oct-07 21:28N 47°36' W 122°35'1 2.0
2017-Oct-07 20:59N 47°37' W 122°35'7 0.3
2017-Oct-06 23:25N 47°44' W 122°31'2 4.8
2017-Oct-06 23:00N 47°43' W 122°28'2 4.0
2017-Oct-06 22:30N 47°41' W 122°26'  
Track history (hours):
 
Tides and Currents Weather Stations Pressure Air Temp Water Temp Dewpoint Dewpoint Depression Visibility Wind Speed Wind Dir Waves Ship Positions

La Dolce Vita

Owner: Gilbertson Jr, Robert B, Seattle, WA. More information available from US FCC via Universal Licensing System and Coast Guard Vessel Documentation Center.

Last reported at 2017-Oct-16 00:51 UTC. Time now 2017-Oct-17 22:30 UTC.
Position N 47°41' W 122°24'.

Length 9 m.

Type: Pleasure craft. MMSI: 367581630.

Date/timePositionNaut miles runAvg speedWind from/ knotsBaromVisibWave heightAir tempDewpointWater temp
2017-Oct-16 00:51N 47°41' W 122°24'0 0.7
2017-Oct-16 00:30N 47°41' W 122°24'2 3.7
2017-Oct-16 00:00N 47°42' W 122°27'3 5.5
2017-Oct-15 23:28N 47°43' W 122°31'1 0.3
2017-Oct-15 19:29N 47°44' W 122°33'2 4.6
2017-Oct-15 19:00N 47°43' W 122°30'3 5.6
2017-Oct-15 18:30N 47°41' W 122°26'1 2.2
2017-Oct-15 18:00N 47°41' W 122°24'0 0.0
2017-Oct-15 00:30N 47°41' W 122°24'0 0.7
2017-Oct-15 00:00N 47°41' W 122°25'2 3.3
2017-Oct-14 23:30N 47°40' W 122°27'2 2.8
2017-Oct-14 22:56N 47°39' W 122°26'1 2.8
2017-Oct-14 22:30N 47°38' W 122°26'2 4.2
2017-Oct-14 22:00N 47°36' W 122°28'2 3.2
2017-Oct-14 21:30N 47°34' W 122°28'1 2.4
2017-Oct-14 21:01N 47°35' W 122°28'1 1.9
2017-Oct-14 20:30N 47°36' W 122°27'1 2.1
2017-Oct-14 20:00N 47°37' W 122°27'2 3.2
2017-Oct-14 19:30N 47°39' W 122°28'2 3.4
2017-Oct-14 19:00N 47°40' W 122°27'1 2.7
2017-Oct-14 18:30N 47°41' W 122°25'  
2017-Oct-08 23:01N 47°41' W 122°24'0 0.0
2017-Oct-08 23:00N 47°41' W 122°24'0 0.5
2017-Oct-08 22:30N 47°41' W 122°25'2 4.7
2017-Oct-08 22:00N 47°41' W 122°28'1 2.4
2017-Oct-08 21:30N 47°40' W 122°29'2 3.3
2017-Oct-08 21:00N 47°38' W 122°29'1 3.0
2017-Oct-08 20:30N 47°37' W 122°29'2 2.9
2017-Oct-08 19:57N 47°37' W 122°31'0 0.2
2017-Oct-08 19:28N 47°37' W 122°31'0 0.0
2017-Oct-08 01:11N 47°37' W 122°31'0 0.8
2017-Oct-08 00:59N 47°37' W 122°31'1 2.8
2017-Oct-08 00:30N 47°37' W 122°29'2 3.1
2017-Oct-08 00:00N 47°35' W 122°28'1 1.2
2017-Oct-07 23:31N 47°35' W 122°28'2 4.9
2017-Oct-07 23:00N 47°34' W 122°32'2 3.1
2017-Oct-07 22:29N 47°35' W 122°34'1 1.4
2017-Oct-07 22:00N 47°35' W 122°35'1 1.4
2017-Oct-07 21:28N 47°36' W 122°35'1 2.0
2017-Oct-07 20:59N 47°37' W 122°35'7 0.3
2017-Oct-06 23:25N 47°44' W 122°31'2 4.8
2017-Oct-06 23:00N 47°43' W 122°28'2 4.0
2017-Oct-06 22:30N 47°41' W 122°26'  

Dump ship's entire track history